Time;durP1;ratioP1;P1;durP2;ratioP2;P2;SDS_P1;SDS_P2;PMS_P1;PMS_P2;Temp;Humidity;BMP_temperature;BMP_pressure;BME280_temperature;BME280_humidity;BME280_pressure;Samples;Min_cycle;Max_cycle;Signal;HPM_P1;HPM_P2
2022/06/29 00:00:26;;;;;;;4.53;3.15;;;;;;;17.94;71.64;95889.18;1800343;79;20967;-64
2022/06/29 00:02:55;;;;;;;3.10;2.80;;;;;;;17.91;70.87;95887.52;1800042;79;21573;-65
2022/06/29 00:05:25;;;;;;;3.65;3.15;;;;;;;17.89;71.12;95885.41;1800124;80;21026;-64
2022/06/29 00:07:54;;;;;;;6.65;3.10;;;;;;;17.81;72.01;95885.31;1800052;80;21003;-64
2022/06/29 00:10:22;;;;;;;4.42;3.22;;;;;;;17.81;72.01;95885.31;1800295;80;21472;-64
2022/06/29 00:12:50;;;;;;;3.40;3.10;;;;;;;17.80;71.78;95884.45;1799861;80;21016;-65
2022/06/29 00:15:19;;;;;;;4.08;3.67;;;;;;;17.80;71.08;95883.11;1800221;79;21031;-64
2022/06/29 00:17:46;;;;;;;4.08;3.67;;;;;;;17.77;71.05;95883.69;1800244;79;21497;-64
2022/06/29 00:20:13;;;;;;;3.77;3.30;;;;;;;17.70;71.58;95876.39;1799947;80;21012;-64
2022/06/29 00:22:42;;;;;;;3.67;3.22;;;;;;;17.70;71.58;95876.39;1799652;79;21119;-64
2022/06/29 00:25:11;;;;;;;6.35;3.98;;;;;;;17.62;71.62;95887.39;1800075;80;21019;-64
2022/06/29 00:27:39;;;;;;;3.62;3.33;;;;;;;17.43;71.40;95890.41;1800286;79;21055;-64
2022/06/29 00:30:08;;;;;;;6.55;3.35;;;;;;;17.43;71.40;95890.41;1800120;80;20977;-64
2022/06/29 00:32:35;;;;;;;3.62;3.33;;;;;;;17.32;71.48;95876.18;1800231;80;20992;-64
2022/06/29 00:35:03;;;;;;;4.95;3.65;;;;;;;17.34;71.80;95894.33;1800282;79;20987;-64
2022/06/29 00:37:30;;;;;;;5.35;3.62;;;;;;;17.26;72.99;95897.31;1799857;79;21028;-65
2022/06/29 00:39:57;;;;;;;3.67;3.37;;;;;;;17.24;73.48;95902.30;1799966;80;20996;-64
2022/06/29 00:42:23;;;;;;;3.67;3.27;;;;;;;17.17;73.90;95903.47;1800024;79;20987;-65
2022/06/29 00:44:50;;;;;;;4.30;3.10;;;;;;;17.15;73.32;95899.98;1800222;79;21004;-64
2022/06/29 00:47:17;;;;;;;3.42;3.12;;;;;;;17.05;73.96;95893.67;1800220;79;21477;-64
2022/06/29 00:49:44;;;;;;;3.47;3.17;;;;;;;17.11;73.04;95889.92;1800263;79;21071;-65
2022/06/29 00:52:14;;;;;;;3.50;3.20;;;;;;;17.12;73.15;95890.31;1800254;80;20952;-64
2022/06/29 00:54:47;;;;;;;3.35;3.05;;;;;;;17.14;72.91;95888.45;1800121;79;21473;-64
2022/06/29 00:57:27;;;;;;;3.40;3.10;;;;;;;17.19;72.74;95893.61;1800377;79;20995;-64
2022/06/29 00:59:57;;;;;;;3.67;3.10;;;;;;;17.20;72.50;95894.87;1800368;79;20983;-64
2022/06/29 01:02:34;;;;;;;3.75;3.45;;;;;;;17.13;72.28;95889.84;1800302;79;21031;-64
2022/06/29 01:05:03;;;;;;;5.45;3.22;;;;;;;17.09;72.84;95885.11;1800173;80;21492;-64
2022/06/29 01:07:33;;;;;;;5.40;3.58;;;;;;;17.13;73.17;95884.51;1800131;79;21008;-65
2022/06/29 01:10:01;;;;;;;4.65;3.47;;;;;;;17.05;74.02;95883.01;1800255;79;21000;-64
2022/06/29 01:12:28;;;;;;;4.78;3.40;;;;;;;17.05;74.02;95883.01;1800294;79;21022;-64
2022/06/29 01:14:55;;;;;;;7.28;3.95;;;;;;;17.05;74.13;95881.67;1800302;79;20972;-65
2022/06/29 01:17:23;;;;;;;4.80;3.08;;;;;;;17.01;73.83;95876.52;1800417;80;21000;-65
2022/06/29 01:19:50;;;;;;;4.08;3.27;;;;;;;16.98;73.30;95872.65;1802783;79;21004;-64
2022/06/29 01:22:21;;;;;;;3.40;3.10;;;;;;;16.93;73.47;95874.16;1808266;79;20956;-65
2022/06/29 01:24:49;;;;;;;3.83;3.45;;;;;;;16.89;74.27;95869.89;1808032;79;21023;-64
2022/06/29 01:27:19;;;;;;;4.15;3.30;;;;;;;16.91;74.87;95872.48;1808186;79;21034;-64
2022/06/29 01:29:46;;;;;;;4.00;3.35;;;;;;;16.92;74.14;95875.56;1808284;79;20968;-65
2022/06/29 01:32:13;;;;;;;3.55;3.25;;;;;;;16.94;73.95;95870.58;1808153;79;21438;-64
2022/06/29 01:34:40;;;;;;;3.27;2.98;;;;;;;16.94;73.95;95870.58;1808196;79;21027;-64
2022/06/29 01:37:08;;;;;;;3.25;2.95;;;;;;;16.96;73.87;95869.17;1808304;79;21003;-64
2022/06/29 01:39:35;;;;;;;3.92;3.42;;;;;;;16.99;73.76;95865.08;1807637;79;21054;-64
2022/06/29 01:42:04;;;;;;;3.40;3.10;;;;;;;16.91;73.85;95863.16;1808192;79;20991;-64
2022/06/29 01:44:31;;;;;;;4.05;3.10;;;;;;;16.94;73.53;95859.06;1808112;79;21442;-64
2022/06/29 01:46:57;;;;;;;3.70;3.40;;;;;;;16.87;74.19;95851.75;1808170;79;20999;-65
2022/06/29 01:49:25;;;;;;;4.92;3.83;;;;;;;16.93;74.73;95859.97;1807891;79;20975;-65
2022/06/29 01:51:52;;;;;;;4.12;3.70;;;;;;;16.90;74.41;95865.42;1808348;79;21014;-64
2022/06/29 01:54:18;;;;;;;6.10;3.30;;;;;;;16.86;74.72;95867.36;1808122;79;20975;-64
2022/06/29 01:56:45;;;;;;;3.65;3.35;;;;;;;16.82;74.06;95863.92;1808266;79;21461;-64
2022/06/29 01:59:12;;;;;;;5.83;3.45;;;;;;;16.73;74.92;95862.04;1808005;79;21016;-64
2022/06/29 02:01:39;;;;;;;3.75;3.40;;;;;;;16.66;75.04;95854.77;1808252;79;20978;-65
2022/06/29 02:04:06;;;;;;;4.50;4.10;;;;;;;16.63;75.17;95846.42;1807828;79;21003;-64
2022/06/29 02:06:33;;;;;;;4.00;3.70;;;;;;;16.57;74.78;95851.11;1808238;79;21481;-65
2022/06/29 02:08:59;;;;;;;5.22;3.45;;;;;;;16.60;74.32;95857.17;1808044;79;20995;-65
2022/06/29 02:11:26;;;;;;;4.05;3.62;;;;;;;16.58;74.22;95860.83;1808255;79;20952;-64
2022/06/29 02:13:53;;;;;;;4.60;4.12;;;;;;;16.46;75.77;95862.65;1807951;79;21482;-64
2022/06/29 02:16:20;;;;;;;4.85;4.40;;;;;;;16.41;75.95;95861.02;1808265;79;20987;-65
2022/06/29 02:18:47;;;;;;;4.87;4.47;;;;;;;16.39;76.03;95857.53;1808052;79;21482;-64
2022/06/29 02:21:14;;;;;;;4.45;3.70;;;;;;;16.39;76.08;95860.19;1805566;79;21036;-64
2022/06/29 02:23:41;;;;;;;3.83;3.52;;;;;;;16.36;76.07;95865.64;1805743;79;21000;-64
2022/06/29 02:26:08;;;;;;;3.62;3.20;;;;;;;16.38;75.60;95866.45;1805595;79;21010;-64
2022/06/29 02:28:34;;;;;;;3.33;3.08;;;;;;;16.41;76.05;95865.48;1805231;79;21079;-64
2022/06/29 02:36:33;;;;;;;5.17;3.30;;;;;;;16.32;76.08;95852.49;1805685;79;20952;-64
2022/06/29 02:39:00;;;;;;;4.67;3.33;;;;;;;16.28;77.29;95858.84;1805538;79;21083;-64
2022/06/29 02:41:27;;;;;;;3.27;2.98;;;;;;;16.28;77.00;95869.49;1805588;79;21019;-64
2022/06/29 02:43:54;;;;;;;6.72;3.55;;;;;;;16.29;76.38;95861.93;1805501;79;21040;-64
2022/06/29 02:46:21;;;;;;;4.65;3.58;;;;;;;16.31;76.24;95864.94;1805876;79;21004;-64
2022/06/29 02:48:48;;;;;;;3.90;3.45;;;;;;;16.32;76.86;95860.02;1805566;79;20999;-65
2022/06/29 02:51:15;;;;;;;3.45;3.15;;;;;;;16.32;76.51;95864.00;1805507;79;21011;-64
2022/06/29 02:53:41;;;;;;;5.25;3.52;;;;;;;16.28;77.02;95856.18;1805253;79;21516;-64
2022/06/29 02:56:08;;;;;;;8.03;4.12;;;;;;;16.27;76.71;95861.11;1805572;79;21473;-64
2022/06/29 02:58:35;;;;;;;3.67;3.33;;;;;;;16.36;77.01;95860.78;1805633;79;20991;-64
2022/06/29 03:01:02;;;;;;;5.50;3.50;;;;;;;16.37;77.53;95858.52;1805714;79;21000;-64
2022/06/29 03:03:29;;;;;;;3.67;3.37;;;;;;;16.36;77.28;95858.98;1805484;79;21061;-64
2022/06/29 03:05:55;;;;;;;4.20;3.80;;;;;;;16.36;76.53;95854.13;1805679;79;20980;-65
2022/06/29 03:08:22;;;;;;;7.53;3.65;;;;;;;16.38;76.88;95857.14;1805304;79;21142;-64
2022/06/29 03:10:49;;;;;;;4.37;3.58;;;;;;;16.33;76.83;95851.55;1805619;79;20992;-64
2022/06/29 03:13:16;;;;;;;3.75;3.45;;;;;;;16.32;76.66;95854.69;1785300;79;20988;-64
2022/06/29 03:15:43;;;;;;;4.37;3.50;;;;;;;16.28;76.93;95847.75;1805635;79;21008;-65
2022/06/29 03:18:10;;;;;;;4.00;3.33;;;;;;;16.33;76.80;95845.79;1805220;79;21067;-65
2022/06/29 03:20:36;;;;;;;4.25;3.50;;;;;;;16.40;76.92;95843.75;1806536;79;21458;-64
2022/06/29 03:23:03;;;;;;;5.53;3.30;;;;;;;16.45;76.61;95831.13;1807783;79;21046;-64
2022/06/29 03:25:30;;;;;;;4.42;3.47;;;;;;;16.59;76.65;95828.81;1808040;79;20944;-64
2022/06/29 03:27:57;;;;;;;5.55;3.45;;;;;;;16.57;75.99;95830.66;1808252;79;21018;-65
2022/06/29 03:30:24;;;;;;;4.25;3.87;;;;;;;16.63;76.63;95830.44;1808270;79;21465;-64
2022/06/29 03:32:50;;;;;;;9.73;6.30;;;;;;;16.63;76.63;95830.44;1808159;79;20964;-65
2022/06/29 03:35:17;;;;;;;7.50;6.60;;;;;;;16.71;76.40;95827.95;1808152;79;21457;-65
2022/06/29 03:37:43;;;;;;;8.05;7.25;;;;;;;16.82;76.10;95830.61;1808117;79;21004;-64
2022/06/29 03:40:12;;;;;;;7.47;6.67;;;;;;;16.94;75.86;95826.60;1807870;79;21573;-65
2022/06/29 03:42:39;;;;;;;8.33;6.22;;;;;;;17.08;75.86;95812.27;1808148;79;21528;-64
2022/06/29 03:45:07;;;;;;;7.80;6.05;;;;;;;17.08;75.86;95812.27;1808144;79;20994;-65
2022/06/29 03:47:34;;;;;;;9.28;6.35;;;;;;;17.08;75.74;95810.93;1808129;79;21006;-64
2022/06/29 03:50:01;;;;;;;7.50;5.65;;;;;;;17.12;75.79;95811.66;1808164;79;21457;-64
2022/06/29 03:52:27;;;;;;;5.20;4.53;;;;;;;17.21;75.52;95812.62;1807656;79;21062;-65
2022/06/29 03:54:54;;;;;;;6.47;5.33;;;;;;;17.20;75.45;95807.34;1807712;79;21007;-65
2022/06/29 03:57:21;;;;;;;6.42;5.83;;;;;;;17.32;76.29;95813.98;1808301;79;21035;-65
2022/06/29 03:59:48;;;;;;;7.37;6.12;;;;;;;17.32;76.29;95813.98;1808053;79;21078;-64
2022/06/29 04:02:14;;;;;;;10.40;6.35;;;;;;;17.25;76.02;95814.22;1808393;79;21003;-65
2022/06/29 04:04:41;;;;;;;7.33;6.15;;;;;;;17.28;75.91;95815.41;1808123;79;20980;-64
2022/06/29 04:07:08;;;;;;;6.75;6.05;;;;;;;17.38;76.13;95806.57;1807908;79;21477;-65
2022/06/29 04:09:35;;;;;;;6.50;5.90;;;;;;;17.49;75.86;95807.47;1808011;79;21008;-64
2022/06/29 04:12:04;;;;;;;8.13;6.58;;;;;;;17.64;75.65;95804.59;1808244;79;21019;-65
2022/06/29 04:14:30;;;;;;;7.33;6.62;;;;;;;17.72;75.26;95795.34;1807959;79;21015;-65
2022/06/29 04:16:58;;;;;;;8.60;7.80;;;;;;;17.90;75.01;95808.84;1808197;79;20987;-65
2022/06/29 04:19:25;;;;;;;7.60;6.83;;;;;;;18.09;74.66;95799.09;1808070;79;20987;-65
2022/06/29 04:21:53;;;;;;;7.80;7.00;;;;;;;18.09;74.66;95799.09;1800976;79;21485;-64
2022/06/29 04:24:20;;;;;;;6.70;6.00;;;;;;;18.21;74.36;95796.31;1800003;79;21078;-65
2022/06/29 04:26:48;;;;;;;7.28;5.65;;;;;;;18.32;73.84;95796.71;1800291;80;20980;-65
2022/06/29 04:29:15;;;;;;;7.00;5.05;;;;;;;18.41;73.30;95788.73;1800117;79;21000;-65
2022/06/29 04:31:42;;;;;;;8.40;5.00;;;;;;;18.57;73.07;95780.85;1800413;79;20976;-65
2022/06/29 04:34:08;;;;;;;4.97;4.53;;;;;;;18.72;72.72;95784.61;1800381;79;21031;-65
2022/06/29 04:36:36;;;;;;;4.72;4.30;;;;;;;18.88;72.75;95782.98;1800614;79;21012;-65
2022/06/29 04:39:03;;;;;;;5.28;4.08;;;;;;;19.07;72.89;95784.75;1800334;79;21051;-64
2022/06/29 04:41:30;;;;;;;6.60;4.42;;;;;;;19.24;72.54;95782.11;1800114;79;21000;-65
2022/06/29 04:43:56;;;;;;;5.83;4.30;;;;;;;19.39;72.51;95781.34;1800389;79;21454;-65
2022/06/29 04:46:23;;;;;;;5.03;4.62;;;;;;;19.59;72.06;95780.81;1800361;79;21509;-64
2022/06/29 04:48:58;;;;;;;5.12;4.50;;;;;;;19.72;71.01;95787.29;1799741;80;20980;-65
2022/06/29 04:51:27;;;;;;;6.75;4.35;;;;;;;19.87;70.87;95782.95;1799416;79;20996;-65
2022/06/29 04:53:56;;;;;;;4.65;4.20;;;;;;;20.01;70.27;95783.11;1800389;79;21023;-65
2022/06/29 04:56:29;;;;;;;7.00;4.42;;;;;;;20.19;69.99;95781.73;1800063;79;21004;-65
2022/06/29 04:58:58;;;;;;;6.90;4.70;;;;;;;20.32;69.97;95774.77;1798934;80;21510;-65
2022/06/29 05:01:28;;;;;;;5.22;4.70;;;;;;;20.50;69.53;95771.55;1800061;79;21088;-65
2022/06/29 05:03:58;;;;;;;6.75;5.03;;;;;;;20.67;69.25;95781.38;1800406;79;21015;-65
2022/06/29 05:06:25;;;;;;;6.33;4.92;;;;;;;20.81;68.70;95774.75;1800433;79;20968;-65
2022/06/29 05:08:53;;;;;;;5.05;4.65;;;;;;;20.97;68.14;95776.12;1800376;79;21513;-65
2022/06/29 05:11:22;;;;;;;6.28;5.25;;;;;;;21.09;66.78;95780.79;1799625;80;21043;-65
2022/06/29 05:13:49;;;;;;;6.58;4.53;;;;;;;21.20;66.96;95781.98;1800420;80;21000;-65
2022/06/29 05:16:17;;;;;;;6.33;4.92;;;;;;;21.25;67.20;95783.93;1800342;79;21011;-65
2022/06/29 05:18:44;;;;;;;5.50;4.40;;;;;;;21.31;67.42;95784.42;1800482;79;20960;-65
2022/06/29 05:21:11;;;;;;;7.20;5.28;;;;;;;21.35;65.87;95775.25;1804214;79;21007;-65
2022/06/29 05:23:38;;;;;;;5.78;4.80;;;;;;;21.42;66.32;95778.48;1808030;79;21022;-65
2022/06/29 05:26:05;;;;;;;5.28;4.75;;;;;;;21.57;66.49;95771.31;1807942;79;21086;-65
2022/06/29 05:28:33;;;;;;;6.17;5.05;;;;;;;21.76;66.22;95769.76;1808306;79;20976;-65
2022/06/29 05:31:00;;;;;;;5.70;5.15;;;;;;;21.91;64.85;95776.03;1807913;79;21054;-65
2022/06/29 05:33:36;;;;;;;7.17;4.85;;;;;;;22.03;65.35;95768.57;1808396;79;21019;-65
2022/06/29 05:35:55;;;;;;;7.17;4.22;;;;;;;22.19;65.21;95769.83;1806816;79;21098;-65
2022/06/29 05:38:22;;;;;;;6.72;4.65;;;;;;;22.33;64.99;95772.56;1808119;79;21497;-65
2022/06/29 05:40:49;;;;;;;5.22;4.58;;;;;;;22.45;64.45;95778.52;1807862;79;21035;-65
2022/06/29 05:43:16;;;;;;;5.10;4.60;;;;;;;22.61;64.19;95782.94;1808239;79;21693;-65
2022/06/29 05:45:42;;;;;;;7.47;4.55;;;;;;;22.76;63.17;95782.44;1807943;79;21081;-65
2022/06/29 05:48:09;;;;;;;6.17;4.60;;;;;;;22.90;61.19;95783.25;1808192;79;21014;-65
2022/06/29 05:50:35;;;;;;;6.70;4.50;;;;;;;23.01;61.27;95776.38;1808255;79;21461;-65
2022/06/29 05:53:02;;;;;;;4.37;3.98;;;;;;;23.13;60.37;95778.24;1808020;79;21019;-65
2022/06/29 05:55:29;;;;;;;5.85;4.50;;;;;;;23.25;60.68;95774.75;1808122;79;21014;-65
2022/06/29 05:57:56;;;;;;;4.72;4.30;;;;;;;23.37;60.58;95770.87;1808170;79;21007;-65
2022/06/29 06:00:22;;;;;;;8.08;4.58;;;;;;;23.49;59.86;95776.31;1808238;79;20960;-65
2022/06/29 06:02:49;;;;;;;5.17;4.67;;;;;;;23.60;60.32;95776.92;1808455;79;20975;-65
2022/06/29 06:05:15;;;;;;;4.67;4.28;;;;;;;23.75;60.66;95773.71;1808127;79;21007;-65
2022/06/29 06:07:42;;;;;;;4.92;4.40;;;;;;;23.88;60.45;95775.94;1808245;79;21496;-65
2022/06/29 06:10:10;;;;;;;9.48;4.47;;;;;;;24.02;60.02;95779.05;1808449;79;20963;-65
2022/06/29 06:12:37;;;;;;;5.10;4.42;;;;;;;24.15;59.85;95779.06;1807910;79;20968;-65
2022/06/29 06:15:05;;;;;;;4.90;4.40;;;;;;;24.30;59.93;95778.48;1808235;79;21525;-65
2022/06/29 06:17:32;;;;;;;5.62;4.80;;;;;;;24.44;59.59;95778.34;1808215;79;21042;-65
2022/06/29 06:19:59;;;;;;;6.12;4.40;;;;;;;24.56;59.07;95778.00;1807986;79;21030;-65
2022/06/29 06:22:26;;;;;;;4.65;4.15;;;;;;;24.69;58.73;95772.09;1800623;79;21008;-65
2022/06/29 06:24:53;;;;;;;4.95;4.33;;;;;;;24.85;58.03;95782.67;1799900;80;21004;-64
2022/06/29 06:27:20;;;;;;;5.03;4.37;;;;;;;24.95;57.36;95767.53;1800293;79;21054;-65
2022/06/29 06:29:47;;;;;;;5.35;4.85;;;;;;;25.08;56.90;95766.14;1800439;79;21470;-65
2022/06/29 06:32:14;;;;;;;8.20;4.60;;;;;;;25.18;54.39;95764.52;1800111;79;21039;-65
2022/06/29 06:34:40;;;;;;;5.40;4.45;;;;;;;25.36;55.82;95765.48;1800211;79;20948;-65
2022/06/29 06:37:07;;;;;;;7.58;4.12;;;;;;;25.51;55.62;95758.07;1799977;79;21007;-65
2022/06/29 06:39:34;;;;;;;7.62;4.15;;;;;;;25.66;55.79;95759.61;1800248;79;21465;-65
2022/06/29 06:42:02;;;;;;;9.13;4.17;;;;;;;25.84;54.92;95760.89;1799616;79;21015;-65
2022/06/29 06:44:29;;;;;;;7.95;4.28;;;;;;;26.00;54.35;95762.45;1800305;79;21320;-65
2022/06/29 06:46:55;;;;;;;6.92;4.50;;;;;;;26.14;50.04;95755.48;1800305;79;21035;-65
2022/06/29 06:49:25;;;;;;;5.37;4.80;;;;;;;26.30;50.42;95755.99;1800355;79;20944;-65
2022/06/29 06:51:52;;;;;;;7.70;4.55;;;;;;;26.52;51.53;95759.25;1800330;79;21454;-65
2022/06/29 06:54:19;;;;;;;5.30;4.22;;;;;;;26.70;51.38;95759.62;1800119;80;21521;-65
2022/06/29 06:56:46;;;;;;;4.40;4.00;;;;;;;26.89;50.74;95756.31;1799887;80;21498;-65
2022/06/29 06:59:13;;;;;;;7.83;3.92;;;;;;;27.04;49.57;95755.56;1800433;79;20964;-65
2022/06/29 07:01:40;;;;;;;6.25;4.08;;;;;;;27.23;49.22;95749.51;1799948;79;21025;-65
2022/06/29 07:04:06;;;;;;;5.22;3.80;;;;;;;27.40;48.52;95750.83;1800151;79;21534;-65
2022/06/29 07:06:33;;;;;;;5.60;4.10;;;;;;;27.54;48.18;95747.84;1800156;79;21024;-65
2022/06/29 07:09:00;;;;;;;5.25;3.75;;;;;;;27.69;47.41;95748.87;1800025;79;21520;-65
2022/06/29 07:11:27;;;;;;;6.08;3.90;;;;;;;27.85;46.75;95747.13;1800399;79;20980;-65
2022/06/29 07:13:54;;;;;;;4.20;3.80;;;;;;;27.96;46.12;95745.70;1799912;80;21071;-65
2022/06/29 07:16:20;;;;;;;5.22;3.80;;;;;;;28.06;44.44;95745.27;1799912;80;21482;-65
2022/06/29 07:18:48;;;;;;;7.37;3.83;;;;;;;28.15;45.07;95749.03;1799946;79;21088;-65
2022/06/29 07:21:15;;;;;;;4.20;3.83;;;;;;;28.26;44.08;95748.98;1802487;79;21031;-65
2022/06/29 07:23:41;;;;;;;5.85;3.72;;;;;;;28.34;43.47;95749.16;1808087;79;21023;-65
2022/06/29 07:26:08;;;;;;;5.40;3.83;;;;;;;28.38;44.10;95743.84;1808094;79;20968;-65
2022/06/29 07:28:35;;;;;;;4.40;4.00;;;;;;;28.50;44.44;95745.14;1808153;79;21003;-65
2022/06/29 07:31:02;;;;;;;4.58;3.98;;;;;;;28.60;44.21;95741.97;1808120;79;21026;-65
2022/06/29 07:33:28;;;;;;;7.75;4.00;;;;;;;28.74;43.87;95749.77;1808052;79;20991;-65
2022/06/29 07:35:55;;;;;;;6.50;4.17;;;;;;;28.89;43.08;95742.97;1808089;79;21082;-65
2022/06/29 07:38:22;;;;;;;6.35;3.72;;;;;;;29.00;42.48;95747.42;1807886;79;20995;-65
2022/06/29 07:40:48;;;;;;;7.42;3.80;;;;;;;29.14;42.41;95745.38;1808159;79;20999;-65
2022/06/29 07:43:16;;;;;;;3.90;3.60;;;;;;;29.20;40.37;95749.73;1807893;79;20984;-65
2022/06/29 07:45:43;;;;;;;4.20;3.80;;;;;;;29.32;40.30;95748.63;1808196;79;20961;-65
2022/06/29 07:48:09;;;;;;;5.65;4.10;;;;;;;29.47;40.08;95745.01;1807999;79;21058;-65
2022/06/29 07:50:36;;;;;;;4.45;3.10;;;;;;;29.60;40.09;95746.59;1807706;79;21019;-65
2022/06/29 07:53:03;;;;;;;4.10;3.62;;;;;;;29.65;36.28;95743.84;1808018;79;21019;-65
2022/06/29 07:55:30;;;;;;;7.35;3.65;;;;;;;29.73;38.08;95748.06;1807626;79;21066;-64
2022/06/29 07:57:57;;;;;;;5.67;3.80;;;;;;;29.86;37.52;95752.36;1808061;79;20948;-65
2022/06/29 08:00:26;;;;;;;5.25;3.87;;;;;;;29.89;36.86;95756.18;1808210;79;20940;-65
2022/06/29 08:02:52;;;;;;;5.20;4.12;;;;;;;29.90;36.49;95751.94;1807879;79;21028;-65
2022/06/29 08:05:20;;;;;;;6.15;4.00;;;;;;;29.97;37.67;95758.52;1808111;79;21031;-65
2022/06/29 08:07:47;;;;;;;5.28;4.20;;;;;;;30.10;36.80;95760.09;1807996;79;21012;-65
2022/06/29 08:10:13;;;;;;;4.15;3.70;;;;;;;30.22;38.21;95769.83;1808174;79;20983;-65
2022/06/29 08:12:40;;;;;;;4.28;3.98;;;;;;;30.36;37.86;95761.73;1807302;79;20972;-65
2022/06/29 08:15:09;;;;;;;4.15;3.83;;;;;;;30.41;38.07;95758.06;1807761;79;21054;-65
2022/06/29 08:17:36;;;;;;;5.60;4.58;;;;;;;30.56;36.58;95751.14;1808263;79;21056;-65
2022/06/29 08:20:05;;;;;;;4.50;3.75;;;;;;;30.72;36.93;95757.36;1807907;79;21057;-65
2022/06/29 08:22:32;;;;;;;4.22;3.83;;;;;;;30.87;35.52;95763.69;1805850;79;21047;-65
2022/06/29 08:24:59;;;;;;;6.67;3.70;;;;;;;30.92;36.28;95759.53;1805227;79;21122;-65
2022/06/29 08:27:26;;;;;;;4.45;3.83;;;;;;;30.96;36.05;95765.53;1805264;79;20995;-65
2022/06/29 08:29:54;;;;;;;3.83;3.52;;;;;;;30.99;35.62;95760.63;1805343;79;21027;-65
2022/06/29 08:32:21;;;;;;;6.47;3.90;;;;;;;31.11;35.27;95757.22;1805574;79;20968;-65
2022/06/29 08:34:47;;;;;;;5.22;4.00;;;;;;;31.22;35.05;95754.78;1805490;79;21038;-65
2022/06/29 08:37:14;;;;;;;4.40;4.00;;;;;;;31.37;35.35;95752.41;1805573;79;20994;-65
2022/06/29 08:39:41;;;;;;;7.67;4.37;;;;;;;31.44;33.30;95750.31;1804984;79;21011;-65
2022/06/29 08:42:08;;;;;;;6.10;4.20;;;;;;;31.41;33.27;95749.77;1805553;79;20952;-65
2022/06/29 08:44:38;;;;;;;4.72;4.05;;;;;;;31.41;33.75;95738.86;1805583;79;21026;-65
2022/06/29 08:47:10;;;;;;;5.45;4.22;;;;;;;31.54;34.00;95742.06;1805519;79;21489;-65
2022/06/29 08:49:37;;;;;;;6.67;4.28;;;;;;;31.63;34.45;95739.79;1805259;79;21070;-65
2022/06/29 08:52:08;;;;;;;5.12;4.15;;;;;;;31.89;33.47;95739.86;1805580;79;20992;-65
2022/06/29 08:54:41;;;;;;;4.50;4.10;;;;;;;31.91;30.93;95743.30;1805415;79;21015;-65
2022/06/29 08:57:10;;;;;;;5.00;4.33;;;;;;;31.97;31.93;95747.30;1805602;79;21039;-65
2022/06/29 08:59:36;;;;;;;5.10;4.10;;;;;;;32.09;30.75;95743.31;1805546;79;21026;-65
2022/06/29 09:02:04;;;;;;;4.60;4.20;;;;;;;32.24;31.80;95735.94;1805504;79;20964;-65
2022/06/29 09:04:31;;;;;;;4.58;4.17;;;;;;;32.32;30.03;95731.89;1805477;79;21015;-65
2022/06/29 09:06:58;;;;;;;5.25;4.03;;;;;;;32.41;31.35;95738.26;1805704;79;21459;-65
2022/06/29 09:09:25;;;;;;;4.37;4.03;;;;;;;32.54;31.68;95738.75;1805231;79;20999;-65
2022/06/29 09:11:53;;;;;;;6.58;4.10;;;;;;;32.43;30.53;95733.50;1805387;79;20960;-65
2022/06/29 09:14:24;;;;;;;5.30;4.00;;;;;;;32.40;31.40;95735.19;1805577;79;21011;-65
2022/06/29 09:16:58;;;;;;;6.65;4.20;;;;;;;32.63;31.71;95736.39;1805422;79;21019;-65
2022/06/29 09:19:36;;;;;;;4.47;3.95;;;;;;;32.60;30.59;95737.23;1805649;79;21051;-65
2022/06/29 09:22:04;;;;;;;4.67;4.00;;;;;;;32.65;31.18;95735.73;1802067;79;21473;-65
2022/06/29 09:24:37;;;;;;;5.12;4.00;;;;;;;32.77;30.69;95728.13;1808251;79;21091;-65
2022/06/29 09:27:07;;;;;;;7.58;4.05;;;;;;;32.95;31.16;95712.50;1807375;79;21496;-65
2022/06/29 09:29:41;;;;;;;4.30;3.90;;;;;;;33.10;30.38;95724.22;1808290;79;21046;-65
2022/06/29 09:32:16;;;;;;;3.83;3.52;;;;;;;33.24;30.33;95728.19;1808233;79;20987;-65
2022/06/29 09:34:49;;;;;;;4.87;3.60;;;;;;;33.33;28.72;95730.79;1808183;79;21007;-65
2022/06/29 09:37:20;;;;;;;6.90;3.80;;;;;;;33.37;28.73;95727.23;1808231;79;20979;-65
2022/06/29 09:39:53;;;;;;;6.95;3.15;;;;;;;33.43;27.59;95722.97;1806936;79;21028;-65
2022/06/29 09:42:27;;;;;;;4.47;3.25;;;;;;;33.45;25.21;95722.30;1808200;79;20991;-65
2022/06/29 09:44:54;;;;;;;3.58;3.27;;;;;;;33.46;25.95;95722.11;1808027;79;21548;-65
2022/06/29 09:47:22;;;;;;;4.42;3.12;;;;;;;33.47;24.98;95722.47;1808483;79;21027;-65
2022/06/29 09:49:57;;;;;;;9.30;4.10;;;;;;;33.54;26.44;95715.80;1751564;79;21529;-65
2022/06/29 09:52:25;;;;;;;4.10;3.70;;;;;;;33.77;26.68;95718.30;1808301;79;21434;-65
2022/06/29 09:54:55;;;;;;;8.85;3.70;;;;;;;33.85;27.98;95717.44;1808351;79;21004;-65
2022/06/29 09:57:28;;;;;;;5.47;3.50;;;;;;;33.98;26.49;95716.94;1807936;79;20935;-65
2022/06/29 10:02:51;;;;;;;6.10;2.90;;;;;;;34.13;24.82;95720.73;1808208;79;21019;-65
2022/06/29 10:05:21;;;;;;;3.55;2.98;;;;;;;33.98;23.79;95725.15;1808031;79;21023;-65
2022/06/29 10:07:51;;;;;;;5.03;3.10;;;;;;;34.13;24.84;95720.73;1808278;79;21015;-65
2022/06/29 10:10:23;;;;;;;5.75;3.00;;;;;;;34.36;23.98;95715.41;1808391;79;20987;-65
2022/06/29 10:16:23;;;;;;;4.75;3.42;;;;;;;34.53;24.28;95713.52;1808410;79;20983;-65
2022/06/29 10:19:22;;;;;;;3.67;3.37;;;;;;;34.31;24.83;95710.97;1807912;79;20995;-65
2022/06/29 10:21:49;;;;;;;4.33;3.70;;;;;;;34.43;25.12;95702.74;1808006;79;21034;-65
2022/06/29 10:24:17;;;;;;;3.85;3.45;;;;;;;34.56;24.11;95708.20;1807822;79;21035;-65
2022/06/29 10:26:46;;;;;;;5.17;3.08;;;;;;;34.67;25.01;95710.59;1807928;79;21009;-65
2022/06/29 10:29:26;;;;;;;3.65;2.85;;;;;;;34.89;23.27;95701.63;1808232;79;20995;-65
2022/06/29 10:32:01;;;;;;;4.97;3.30;;;;;;;35.00;23.50;95699.53;1808157;79;21075;-65
2022/06/29 10:35:05;;;;;;;3.45;3.15;;;;;;;35.07;23.38;95691.79;1807747;79;20987;-65
2022/06/29 10:37:14;;;;;;;3.98;3.10;;;;;;;35.20;22.71;95703.59;1802089;79;21489;-65
2022/06/29 10:39:49;;;;;;;7.03;2.80;;;;;;;35.18;22.74;95687.85;1808017;79;20980;-65
2022/06/29 10:45:18;;;;;;;4.75;2.87;;;;;;;35.30;22.93;95687.77;1808195;79;21027;-65
2022/06/29 10:47:56;;;;;;;3.47;2.98;;;;;;;35.50;22.23;95679.09;1808058;79;21004;-65
2022/06/29 10:50:28;;;;;;;3.37;2.72;;;;;;;35.40;21.71;95675.72;1805985;79;21050;-65
2022/06/29 10:52:58;;;;;;;2.87;2.27;;;;;;;35.59;22.91;95673.92;1808098;79;20936;-65
2022/06/29 10:55:29;;;;;;;4.03;2.40;;;;;;;35.71;19.92;95668.88;1808273;79;21027;-65
2022/06/29 10:57:58;;;;;;;3.47;2.70;;;;;;;35.88;20.25;95674.56;1808145;79;20999;-65
2022/06/29 11:00:45;;;;;;;4.62;2.80;;;;;;;35.86;20.50;95673.91;1807831;79;21453;-65
2022/06/29 11:03:21;;;;;;;5.22;2.77;;;;;;;35.72;21.02;95661.82;1807543;79;21015;-65
2022/06/29 11:16:58;;;;;;;4.67;2.50;;;;;;;36.01;18.85;95654.72;1808449;79;20996;-65
2022/06/29 11:19:36;;;;;;;4.58;2.50;;;;;;;36.12;20.15;95660.34;1808215;79;21445;-65
2022/06/29 11:22:17;;;;;;;2.42;2.22;;;;;;;36.10;20.20;95653.65;1807205;79;21020;-66
2022/06/29 11:24:59;;;;;;;2.52;2.02;;;;;;;36.24;18.54;95650.63;1808067;79;21023;-65
2022/06/29 11:27:38;;;;;;;2.22;1.90;;;;;;;36.30;17.98;95657.25;1807974;79;21584;-65
2022/06/29 11:30:11;;;;;;;3.42;2.00;;;;;;;36.41;18.16;95648.54;1807767;79;20991;-65
2022/06/29 11:32:43;;;;;;;2.47;2.08;;;;;;;36.43;18.18;95653.33;1808145;79;20971;-65
2022/06/29 11:35:13;;;;;;;5.12;2.12;;;;;;;36.49;17.96;95645.73;1808208;79;21062;-65
2022/06/29 11:38:01;;;;;;;2.55;2.25;;;;;;;36.62;17.77;95638.23;1777019;79;20940;-65
2022/06/29 11:40:41;;;;;;;1.75;1.65;;;;;;;36.86;17.68;95636.23;1807125;79;21509;-65
2022/06/29 11:43:15;;;;;;;2.00;1.80;;;;;;;36.75;15.86;95633.45;1808015;79;21517;-65
2022/06/29 11:45:58;;;;;;;2.33;1.75;;;;;;;36.76;16.29;95634.61;1807975;79;21011;-65
2022/06/29 11:48:30;;;;;;;2.45;1.92;;;;;;;36.83;17.09;95633.34;1808236;79;21521;-65
2022/06/29 11:51:01;;;;;;;3.00;2.00;;;;;;;36.94;16.35;95631.99;1807632;79;21016;-65
2022/06/29 11:53:50;;;;;;;4.30;1.82;;;;;;;36.97;16.99;95632.98;1808350;79;20986;-65
2022/06/29 11:56:22;;;;;;;2.02;1.65;;;;;;;36.97;17.82;95631.60;1776710;79;21012;-65
2022/06/29 11:58:51;;;;;;;2.92;2.12;;;;;;;37.12;17.26;95629.75;1807961;79;21018;-65
2022/06/29 12:01:21;;;;;;;2.92;2.00;;;;;;;37.14;16.93;95629.53;1808202;79;21007;-65
2022/06/29 12:03:50;;;;;;;2.30;1.85;;;;;;;37.21;16.90;95629.09;1808092;79;21006;-65
2022/06/29 12:06:18;;;;;;;3.10;2.05;;;;;;;37.16;16.85;95634.33;1808058;79;21008;-65